createdAt,value
2019-05-29T00:00:46.917Z,1.87
2019-05-29T00:03:15.066Z,1.80
2019-05-29T00:05:43.243Z,2.20
2019-05-29T00:08:12.312Z,1.90
2019-05-29T00:10:41.469Z,1.90
2019-05-29T00:13:10.247Z,1.87
2019-05-29T00:15:38.528Z,2.07
2019-05-29T00:18:06.574Z,2.40
2019-05-29T00:20:34.756Z,2.00
2019-05-29T00:23:02.940Z,1.93
2019-05-29T00:25:31.098Z,2.13
2019-05-29T00:27:59.274Z,1.90
2019-05-29T00:30:27.550Z,2.00
2019-05-29T00:32:55.796Z,2.50
2019-05-29T00:35:24.057Z,2.30
2019-05-29T00:37:52.209Z,2.17
2019-05-29T00:40:20.441Z,2.10
2019-05-29T00:42:48.561Z,2.77
2019-05-29T00:45:17.712Z,2.00
2019-05-29T00:47:46.018Z,2.37
2019-05-29T00:50:14.360Z,1.83
2019-05-29T00:52:42.600Z,2.13
2019-05-29T00:55:11.098Z,2.37
2019-05-29T00:57:39.156Z,2.20
2019-05-29T01:00:07.398Z,2.40
2019-05-29T01:02:35.946Z,2.37
2019-05-29T01:05:04.964Z,2.20
2019-05-29T01:07:33.336Z,2.20
2019-05-29T01:10:01.401Z,1.93
2019-05-29T01:12:29.535Z,2.50
2019-05-29T01:14:57.937Z,2.53
2019-05-29T01:17:26.111Z,1.80
2019-05-29T01:19:54.321Z,2.20
2019-05-29T01:22:22.517Z,2.13
2019-05-29T01:24:51.707Z,2.10
2019-05-29T01:27:20.901Z,2.70
2019-05-29T01:29:49.137Z,2.20
2019-05-29T01:32:17.588Z,2.30
2019-05-29T01:34:45.667Z,2.13
2019-05-29T01:37:14.009Z,2.20
2019-05-29T01:39:42.441Z,2.00
2019-05-29T01:42:10.759Z,2.20
2019-05-29T01:44:38.792Z,2.03
2019-05-29T01:47:06.950Z,2.67
2019-05-29T01:49:35.215Z,2.33
2019-05-29T01:52:03.417Z,2.50
2019-05-29T01:54:31.493Z,2.30
2019-05-29T01:56:59.624Z,2.50
2019-05-29T01:59:28.104Z,2.40
2019-05-29T02:01:56.154Z,2.10
2019-05-29T02:04:24.337Z,2.30
2019-05-29T02:06:52.456Z,2.13
2019-05-29T02:09:22.039Z,2.10
2019-05-29T02:11:50.391Z,2.33
2019-05-29T02:14:18.490Z,2.53
2019-05-29T02:16:46.783Z,2.30
2019-05-29T02:19:15.744Z,2.70
2019-05-29T02:21:43.953Z,2.13
2019-05-29T02:24:12.147Z,2.10
2019-05-29T02:26:40.162Z,2.27
2019-05-29T02:29:08.355Z,2.47
2019-05-29T02:31:36.492Z,2.40
2019-05-29T02:34:07.312Z,2.33
2019-05-29T02:36:34.768Z,2.53
2019-05-29T02:39:04.690Z,2.30
2019-05-29T02:41:33.217Z,2.30
2019-05-29T02:44:01.358Z,2.37
2019-05-29T02:46:30.112Z,2.07
2019-05-29T02:48:58.304Z,2.47
2019-05-29T02:51:28.274Z,1.97
2019-05-29T02:53:56.507Z,2.20
2019-05-29T02:56:24.966Z,2.33
2019-05-29T02:58:53.334Z,2.53
2019-05-29T03:01:21.638Z,2.40
2019-05-29T03:03:51.439Z,2.40
2019-05-29T03:06:19.817Z,2.07
2019-05-29T03:08:48.668Z,2.57
2019-05-29T03:11:17.032Z,2.47
2019-05-29T03:13:45.825Z,2.20
2019-05-29T03:16:14.067Z,2.00
2019-05-29T03:18:42.130Z,2.47
2019-05-29T03:21:10.269Z,2.30
2019-05-29T03:23:38.313Z,2.43
2019-05-29T03:26:06.463Z,2.37
2019-05-29T03:28:35.182Z,2.20
2019-05-29T03:31:04.620Z,2.57
2019-05-29T03:33:40.891Z,2.53
2019-05-29T03:36:03.070Z,2.40
2019-05-29T03:38:32.740Z,2.20
2019-05-29T03:41:01.129Z,2.40
2019-05-29T03:43:30.895Z,2.00
2019-05-29T03:45:59.131Z,2.43
2019-05-29T03:48:27.810Z,2.30
2019-05-29T03:50:56.026Z,2.80
2019-05-29T03:53:24.081Z,2.90
2019-05-29T03:55:52.116Z,2.50
2019-05-29T03:58:20.248Z,2.60
2019-05-29T04:00:48.988Z,2.70
2019-05-29T04:03:17.649Z,2.60
2019-05-29T04:05:45.851Z,2.67
2019-05-29T04:08:14.168Z,2.40
2019-05-29T04:10:42.305Z,2.30
2019-05-29T04:13:10.550Z,2.37
2019-05-29T04:15:41.350Z,2.17
2019-05-29T04:18:09.495Z,2.00
2019-05-29T04:20:39.050Z,2.13
2019-05-29T04:23:07.640Z,2.13
2019-05-29T04:25:40.560Z,2.17
2019-05-29T04:28:07.990Z,2.07
2019-05-29T04:30:36.634Z,1.93
2019-05-29T04:33:05.320Z,2.10
2019-05-29T04:35:34.587Z,2.10
2019-05-29T04:38:03.230Z,2.10
2019-05-29T04:40:32.695Z,2.00
2019-05-29T04:43:01.227Z,1.77
2019-05-29T04:45:30.814Z,1.80
2019-05-29T04:47:59.230Z,1.93
2019-05-29T04:50:29.001Z,2.10
2019-05-29T04:52:57.385Z,1.83
2019-05-29T04:55:25.438Z,2.10
2019-05-29T04:57:53.618Z,1.80
2019-05-29T05:00:21.808Z,2.23
2019-05-29T05:02:49.937Z,2.20
2019-05-29T05:05:19.687Z,2.13
2019-05-29T05:07:48.302Z,2.03
2019-05-29T05:10:35.673Z,1.87
2019-05-29T05:13:04.243Z,2.20
2019-05-29T05:15:35.894Z,2.07
2019-05-29T05:18:05.911Z,1.90
2019-05-29T05:20:34.182Z,2.00
2019-05-29T05:23:03.916Z,2.33
2019-05-29T05:25:32.237Z,1.70
2019-05-29T05:28:00.443Z,2.23
2019-05-29T05:30:28.778Z,2.27
2019-05-29T05:32:57.424Z,1.80
2019-05-29T05:35:25.584Z,1.80
2019-05-29T05:37:53.690Z,1.77
2019-05-29T05:40:22.188Z,1.93
2019-05-29T05:42:50.258Z,2.00
2019-05-29T05:45:18.534Z,2.23
2019-05-29T05:47:56.997Z,2.37
2019-05-29T05:50:18.968Z,2.60
2019-05-29T05:52:47.434Z,2.73
2019-05-29T05:55:16.474Z,2.23
2019-05-29T05:57:44.853Z,2.33
2019-05-29T06:00:16.133Z,2.80
2019-05-29T06:02:44.782Z,2.13
2019-05-29T06:05:13.154Z,2.47
2019-05-29T06:07:42.498Z,2.73
2019-05-29T06:10:12.861Z,2.40
2019-05-29T06:12:42.882Z,2.00
2019-05-29T06:15:12.378Z,1.60
2019-05-29T06:17:40.842Z,1.53
2019-05-29T06:20:09.326Z,1.67
2019-05-29T06:22:38.975Z,1.70
2019-05-29T06:25:08.167Z,1.77
2019-05-29T06:27:37.124Z,1.60
2019-05-29T06:30:07.081Z,1.93
2019-05-29T06:32:37.267Z,1.80
2019-05-29T06:35:05.903Z,2.23
2019-05-29T06:37:34.028Z,2.17
2019-05-29T06:40:02.391Z,1.63
2019-05-29T06:42:31.595Z,1.60
2019-05-29T06:44:59.775Z,1.60
2019-05-29T06:47:27.990Z,1.70
2019-05-29T06:49:56.259Z,1.50
2019-05-29T06:52:24.385Z,2.00
2019-05-29T06:54:52.504Z,1.70
2019-05-29T06:57:20.680Z,1.83
2019-05-29T06:59:48.993Z,1.70
2019-05-29T07:02:17.290Z,1.60
2019-05-29T07:04:46.565Z,1.87
2019-05-29T07:07:14.867Z,1.57
2019-05-29T07:09:43.066Z,1.83
2019-05-29T07:12:11.163Z,1.97
2019-05-29T07:14:40.268Z,1.80
2019-05-29T07:17:08.562Z,1.77
2019-05-29T07:19:49.062Z,1.90
2019-05-29T07:22:06.777Z,1.60
2019-05-29T07:24:34.881Z,1.90
2019-05-29T07:27:03.085Z,1.70
2019-05-29T07:29:31.198Z,1.70
2019-05-29T07:31:59.568Z,1.40
2019-05-29T07:34:27.798Z,2.10
2019-05-29T07:36:56.026Z,1.80
2019-05-29T07:39:24.308Z,1.60
2019-05-29T07:41:52.480Z,2.23
2019-05-29T07:44:20.570Z,1.40
2019-05-29T07:46:48.987Z,1.60
2019-05-29T07:49:17.266Z,1.50
2019-05-29T07:51:46.659Z,1.97
2019-05-29T07:54:15.143Z,1.63
2019-05-29T07:56:43.175Z,1.60
2019-05-29T07:59:11.591Z,1.57
2019-05-29T08:01:40.743Z,1.67
2019-05-29T08:04:09.123Z,1.60
2019-05-29T08:06:37.199Z,1.60
2019-05-29T08:09:07.054Z,1.73
2019-05-29T08:11:35.204Z,1.90
2019-05-29T08:14:03.751Z,1.80
2019-05-29T08:16:32.362Z,1.63
2019-05-29T08:19:00.612Z,1.70
2019-05-29T08:21:28.787Z,1.80
2019-05-29T08:23:57.063Z,1.80
2019-05-29T08:26:25.174Z,1.70
2019-05-29T08:28:53.284Z,1.70
2019-05-29T08:31:21.554Z,1.60
2019-05-29T08:33:51.056Z,2.10
2019-05-29T08:36:19.383Z,1.50
2019-05-29T08:38:47.480Z,1.90
2019-05-29T08:41:15.714Z,1.83
2019-05-29T08:43:45.218Z,1.60
2019-05-29T08:46:13.838Z,1.60
2019-05-29T08:48:41.998Z,1.70
2019-05-29T08:51:10.952Z,1.50
2019-05-29T08:53:39.196Z,1.50
2019-05-29T08:56:07.305Z,1.30
2019-05-29T08:58:37.526Z,1.50
2019-05-29T09:01:06.148Z,1.30
2019-05-29T09:03:34.586Z,1.73
2019-05-29T09:06:19.480Z,1.60
2019-05-29T09:08:54.470Z,1.63
2019-05-29T09:11:35.700Z,1.37
2019-05-29T09:14:12.185Z,1.60
2019-05-29T09:16:47.133Z,1.27
2019-05-29T09:19:16.356Z,1.23
2019-05-29T09:21:44.603Z,1.57
2019-05-29T09:24:14.255Z,1.57
2019-05-29T09:26:42.649Z,1.60
2019-05-29T09:29:10.746Z,1.50
2019-05-29T09:31:39.833Z,1.43
2019-05-29T09:34:08.026Z,1.33
2019-05-29T09:36:36.288Z,1.60
2019-05-29T09:39:06.982Z,1.47
2019-05-29T09:41:35.261Z,1.60
2019-05-29T09:44:03.580Z,1.40
2019-05-29T09:46:31.713Z,1.60
2019-05-29T09:49:01.654Z,1.17
2019-05-29T09:51:30.842Z,1.50
2019-05-29T09:54:01.048Z,1.20
2019-05-29T09:56:29.180Z,1.50
2019-05-29T09:58:58.464Z,1.20
2019-05-29T10:01:27.740Z,1.50
2019-05-29T10:03:57.574Z,1.10
2019-05-29T10:06:26.105Z,1.30
2019-05-29T10:08:56.057Z,1.10
2019-05-29T10:11:24.570Z,1.43
2019-05-29T10:13:53.903Z,1.40
2019-05-29T10:16:22.983Z,1.30
2019-05-29T10:18:51.240Z,1.40
2019-05-29T10:21:19.480Z,1.20
2019-05-29T10:23:49.115Z,1.27
2019-05-29T10:26:17.215Z,1.20
2019-05-29T10:29:02.272Z,1.30
2019-05-29T10:31:16.417Z,1.87
2019-05-29T10:33:44.534Z,1.50
2019-05-29T10:36:12.923Z,1.37
2019-05-29T10:38:42.344Z,2.10
2019-05-29T10:41:10.547Z,1.60
2019-05-29T10:43:38.711Z,1.50
2019-05-29T10:46:07.006Z,1.60
2019-05-29T10:48:35.235Z,1.67
2019-05-29T10:51:03.533Z,1.30
2019-05-29T10:53:31.903Z,1.70
2019-05-29T10:56:00.005Z,1.80
2019-05-29T10:58:28.119Z,1.90
2019-05-29T11:00:56.319Z,2.17
2019-05-29T11:03:24.866Z,2.03
2019-05-29T11:05:53.784Z,1.70
2019-05-29T11:08:22.105Z,1.57
2019-05-29T11:10:50.359Z,1.40
2019-05-29T11:13:18.509Z,1.73
2019-05-29T11:15:46.731Z,1.60
2019-05-29T11:18:15.005Z,1.50
2019-05-29T11:20:43.154Z,1.70
2019-05-29T11:23:11.452Z,1.57
2019-05-29T11:25:39.993Z,1.60
2019-05-29T11:28:08.320Z,1.80
2019-05-29T11:30:36.698Z,1.90
2019-05-29T11:33:04.966Z,1.60
2019-05-29T11:35:33.088Z,1.60
2019-05-29T11:38:01.269Z,1.60
2019-05-29T11:40:30.310Z,1.70
2019-05-29T11:42:59.197Z,1.53
2019-05-29T11:45:27.755Z,1.57
2019-05-29T11:47:57.326Z,1.50
2019-05-29T11:50:26.023Z,1.43
2019-05-29T11:52:54.474Z,1.77
2019-05-29T11:55:27.168Z,1.70
2019-05-29T11:58:00.072Z,1.40
2019-05-29T12:00:31.150Z,1.40
2019-05-29T12:03:01.617Z,1.60
2019-05-29T12:05:30.086Z,1.50
2019-05-29T12:07:59.484Z,1.37
2019-05-29T12:10:27.751Z,1.73
2019-05-29T12:12:56.039Z,1.73
2019-05-29T12:15:26.700Z,1.60
2019-05-29T12:18:08.458Z,1.57
2019-05-29T12:20:28.112Z,1.60
2019-05-29T12:23:18.927Z,1.50
2019-05-29T12:25:27.955Z,1.70
2019-05-29T12:27:57.342Z,1.40
2019-05-29T12:30:27.293Z,1.80
2019-05-29T12:32:56.791Z,1.50
2019-05-29T12:35:25.386Z,1.40
2019-05-29T12:37:53.701Z,1.50
2019-05-29T12:40:21.946Z,1.50
2019-05-29T12:42:50.259Z,1.50
2019-05-29T12:45:20.037Z,1.87
2019-05-29T12:47:48.408Z,3.90
2019-05-29T12:50:17.548Z,1.90
2019-05-29T12:52:45.895Z,1.80
2019-05-29T12:55:14.403Z,1.43
2019-05-29T12:57:42.806Z,1.50
2019-05-29T13:00:11.980Z,1.47
2019-05-29T13:02:40.118Z,1.40
2019-05-29T13:05:18.355Z,1.30
2019-05-29T13:07:39.885Z,1.50
2019-05-29T13:10:08.983Z,1.23
2019-05-29T13:12:37.878Z,1.47
2019-05-29T13:15:07.377Z,1.40
2019-05-29T13:17:35.662Z,1.50
2019-05-29T13:20:20.138Z,1.40
2019-05-29T13:22:35.982Z,1.50
2019-05-29T13:25:05.523Z,1.60
2019-05-29T13:27:34.077Z,1.80
2019-05-29T13:30:04.331Z,1.60
2019-05-29T13:32:32.377Z,1.73
2019-05-29T13:35:02.246Z,1.60
2019-05-29T13:37:30.741Z,1.57
2019-05-29T13:39:59.997Z,1.40
2019-05-29T13:42:28.905Z,1.47
2019-05-29T13:44:59.612Z,1.33
2019-05-29T13:47:27.296Z,1.40
2019-05-29T13:49:56.909Z,1.83
2019-05-29T13:52:25.408Z,1.40
2019-05-29T13:54:53.747Z,1.40
2019-05-29T13:57:22.028Z,1.40
2019-05-29T13:59:50.461Z,1.33
2019-05-29T14:02:18.669Z,1.33
2019-05-29T14:04:46.916Z,1.60
2019-05-29T14:07:15.279Z,1.50
2019-05-29T14:09:47.150Z,1.80
2019-05-29T14:12:16.133Z,1.50
2019-05-29T14:14:45.781Z,1.60
2019-05-29T14:17:13.980Z,1.80
2019-05-29T14:19:42.335Z,1.53
2019-05-29T14:22:10.507Z,1.57
2019-05-29T14:24:38.759Z,1.43
2019-05-29T14:27:07.488Z,1.70
2019-05-29T14:29:35.762Z,1.80
2019-05-29T14:32:05.035Z,1.80
2019-05-29T14:34:33.382Z,1.77
2019-05-29T14:37:04.182Z,1.60
2019-05-29T14:39:31.729Z,2.00
2019-05-29T14:42:00.052Z,1.80
2019-05-29T14:44:28.189Z,1.47
2019-05-29T14:46:56.453Z,2.00
2019-05-29T14:49:26.959Z,1.90
2019-05-29T14:51:54.906Z,1.97
2019-05-29T14:54:40.261Z,2.17
2019-05-29T14:56:53.298Z,1.73
2019-05-29T14:59:21.506Z,1.90
2019-05-29T15:01:51.751Z,1.90
2019-05-29T15:04:20.094Z,1.80
2019-05-29T15:06:48.216Z,2.10
2019-05-29T15:09:16.389Z,1.90
2019-05-29T15:11:44.568Z,2.10
2019-05-29T15:14:12.690Z,2.00
2019-05-29T15:16:40.985Z,2.13
2019-05-29T15:19:09.141Z,2.10
2019-05-29T15:21:37.433Z,2.10
2019-05-29T15:24:05.793Z,2.20
2019-05-29T15:26:33.964Z,2.00
2019-05-29T15:29:02.073Z,2.00
2019-05-29T15:31:30.221Z,1.90
2019-05-29T15:33:58.450Z,1.70
2019-05-29T15:36:26.572Z,1.57
2019-05-29T15:38:54.807Z,1.70
2019-05-29T15:41:23.091Z,1.80
2019-05-29T15:43:51.399Z,1.80
2019-05-29T15:46:19.729Z,1.80
2019-05-29T15:48:47.851Z,2.10
2019-05-29T15:51:17.091Z,1.90
2019-05-29T15:53:45.488Z,2.20
2019-05-29T15:56:21.658Z,1.80
2019-05-29T15:58:44.012Z,1.90
2019-05-29T16:01:13.480Z,2.10
2019-05-29T16:03:42.531Z,2.00
2019-05-29T16:06:11.739Z,1.90
2019-05-29T16:08:39.949Z,1.60
2019-05-29T16:11:08.583Z,2.30
2019-05-29T16:13:36.947Z,2.10
2019-05-29T16:16:05.043Z,1.70
2019-05-29T16:18:37.645Z,1.90
2019-05-29T16:21:05.742Z,1.73
2019-05-29T16:23:36.023Z,1.40
2019-05-29T16:26:03.975Z,1.60
2019-05-29T16:28:32.151Z,1.37
2019-05-29T16:31:00.259Z,1.80
2019-05-29T16:33:28.629Z,1.60
2019-05-29T16:35:56.921Z,1.30
2019-05-29T16:38:25.008Z,1.40
2019-05-29T16:40:53.359Z,1.33
2019-05-29T16:43:22.390Z,1.43
2019-05-29T16:45:50.849Z,1.20
2019-05-29T16:48:19.163Z,1.23
2019-05-29T16:50:47.511Z,1.40
2019-05-29T16:53:16.770Z,1.53
2019-05-29T16:55:53.545Z,1.50
2019-05-29T16:58:15.119Z,1.70
2019-05-29T17:00:44.254Z,1.37
2019-05-29T17:03:13.456Z,1.33
2019-05-29T17:05:41.822Z,1.83
2019-05-29T17:08:10.072Z,1.10
2019-05-29T17:10:38.469Z,1.40
2019-05-29T17:13:07.169Z,1.50
2019-05-29T17:15:35.443Z,1.43
2019-05-29T17:18:04.276Z,1.50
2019-05-29T17:20:43.014Z,1.47
2019-05-29T17:23:12.128Z,1.70
2019-05-29T17:25:40.654Z,1.43
2019-05-29T17:28:11.665Z,1.73
2019-05-29T17:30:40.282Z,1.80
2019-05-29T17:33:08.561Z,1.47
2019-05-29T17:35:36.773Z,1.50
2019-05-29T17:38:05.120Z,1.30
2019-05-29T17:40:33.521Z,1.40
2019-05-29T17:43:01.777Z,1.43
2019-05-29T17:45:31.103Z,1.73
2019-05-29T17:47:59.630Z,1.53
2019-05-29T17:50:28.320Z,1.40
2019-05-29T17:53:04.252Z,1.30
2019-05-29T17:55:32.524Z,1.40
2019-05-29T17:58:00.770Z,1.73
2019-05-29T18:00:35.042Z,1.50
2019-05-29T18:03:08.377Z,1.63
2019-05-29T18:08:31.333Z,1.73
2019-05-29T18:11:06.392Z,1.93
2019-05-29T18:13:34.915Z,1.50
2019-05-29T18:16:03.087Z,1.50
2019-05-29T18:18:31.305Z,3.80
2019-05-29T18:20:59.569Z,3.23
2019-05-29T18:23:28.178Z,1.93
2019-05-29T18:25:56.519Z,2.07
2019-05-29T18:28:24.723Z,1.87
2019-05-29T18:30:53.023Z,1.30
2019-05-29T18:33:22.710Z,1.53
2019-05-29T18:35:51.213Z,1.50
2019-05-29T18:38:20.225Z,1.70
2019-05-29T18:40:48.421Z,1.83
2019-05-29T18:43:16.869Z,1.70
2019-05-29T18:45:45.024Z,1.47
2019-05-29T18:48:13.191Z,1.40
2019-05-29T18:50:44.270Z,1.50
2019-05-29T18:53:11.779Z,1.50
2019-05-29T18:55:40.316Z,1.50
2019-05-29T18:58:08.912Z,1.60
2019-05-29T19:00:37.502Z,1.40
2019-05-29T19:03:06.677Z,1.40
2019-05-29T19:05:37.434Z,1.53
2019-05-29T19:08:25.809Z,1.53
2019-05-29T19:10:54.079Z,1.60
2019-05-29T19:13:23.759Z,1.63
2019-05-29T19:15:52.995Z,1.67
2019-05-29T19:18:22.026Z,2.00
2019-05-29T19:20:50.952Z,2.10
2019-05-29T19:23:19.902Z,1.70
2019-05-29T19:26:36.668Z,2.00
2019-05-29T19:28:30.679Z,1.73
2019-05-29T19:30:59.287Z,2.10
2019-05-29T19:33:29.350Z,1.60
2019-05-29T19:35:58.070Z,2.20
2019-05-29T19:38:27.795Z,2.30
2019-05-29T19:40:56.609Z,2.17
2019-05-29T19:43:26.241Z,2.20
2019-05-29T19:45:54.923Z,6.50
2019-05-29T19:48:24.728Z,3.20
2019-05-29T19:50:53.532Z,9.53
2019-05-29T19:53:27.727Z,7.00
2019-05-29T19:55:55.711Z,6.43
2019-05-29T19:58:25.575Z,4.50
2019-05-29T20:00:54.784Z,4.20
2019-05-29T20:03:23.576Z,3.23
2019-05-29T20:05:52.789Z,3.43
2019-05-29T20:08:22.850Z,3.20
2019-05-29T20:10:51.753Z,3.47
2019-05-29T20:13:21.131Z,3.03
2019-05-29T20:15:50.172Z,3.07
2019-05-29T20:18:19.152Z,3.07
2019-05-29T20:20:47.712Z,3.37
2019-05-29T20:23:16.743Z,3.30
2019-05-29T20:25:45.366Z,3.23
2019-05-29T20:28:14.279Z,3.27
2019-05-29T20:30:43.253Z,3.40
2019-05-29T20:33:12.352Z,3.70
2019-05-29T20:35:40.856Z,3.33
2019-05-29T20:38:09.178Z,3.70
2019-05-29T20:40:41.386Z,3.60
2019-05-29T20:43:10.531Z,3.30
2019-05-29T20:45:41.754Z,3.83
2019-05-29T20:48:10.262Z,3.70
2019-05-29T20:50:39.207Z,3.60
2019-05-29T20:53:07.817Z,3.23
2019-05-29T20:55:36.048Z,3.17
2019-05-29T20:58:04.253Z,3.57
2019-05-29T21:00:32.403Z,3.03
2019-05-29T21:03:00.585Z,3.40
2019-05-29T21:05:28.653Z,3.07
2019-05-29T21:07:56.722Z,3.27
2019-05-29T21:10:24.999Z,3.10
2019-05-29T21:12:53.265Z,3.60
2019-05-29T21:15:21.469Z,3.17
2019-05-29T21:17:49.831Z,3.43
2019-05-29T21:20:18.123Z,3.57
2019-05-29T21:22:46.219Z,3.53
2019-05-29T21:25:18.917Z,3.60
2019-05-29T21:27:49.126Z,3.20
2019-05-29T21:30:23.401Z,3.00
2019-05-29T21:32:51.613Z,3.50
2019-05-29T21:35:19.743Z,3.20
2019-05-29T21:37:48.105Z,2.63
2019-05-29T21:40:16.355Z,3.23
2019-05-29T21:42:44.889Z,3.13
2019-05-29T21:45:13.421Z,3.17
2019-05-29T21:47:43.427Z,3.10
2019-05-29T21:50:13.044Z,3.33
2019-05-29T21:52:41.536Z,3.33
2019-05-29T21:55:11.933Z,3.50
2019-05-29T21:57:43.903Z,3.70
2019-05-29T22:00:15.102Z,3.30
2019-05-29T22:02:46.351Z,3.10
2019-05-29T22:05:15.332Z,3.40
2019-05-29T22:07:44.821Z,3.40
2019-05-29T22:10:15.083Z,3.60
2019-05-29T22:12:44.284Z,3.03
2019-05-29T22:15:12.893Z,3.07
2019-05-29T22:17:41.277Z,2.93
2019-05-29T22:20:09.620Z,3.20
2019-05-29T22:22:37.984Z,2.93
2019-05-29T22:25:06.647Z,2.83
2019-05-29T22:27:34.818Z,2.93
2019-05-29T22:30:03.973Z,2.73
2019-05-29T22:32:33.214Z,3.27
2019-05-29T22:35:01.882Z,2.97
2019-05-29T22:37:30.383Z,2.83
2019-05-29T22:39:59.606Z,3.30
2019-05-29T22:42:28.339Z,2.83
2019-05-29T22:44:57.731Z,3.07
2019-05-29T22:47:26.092Z,3.30
2019-05-29T22:49:55.507Z,3.37
2019-05-29T22:52:24.205Z,3.47
2019-05-29T22:54:53.694Z,3.33
2019-05-29T22:57:22.123Z,3.17
2019-05-29T22:59:51.747Z,3.27
2019-05-29T23:02:20.131Z,3.30
2019-05-29T23:04:48.323Z,2.93
2019-05-29T23:07:16.462Z,3.20
2019-05-29T23:09:44.785Z,3.67
2019-05-29T23:12:13.114Z,2.90
2019-05-29T23:14:41.363Z,3.10
2019-05-29T23:17:10.022Z,2.97
2019-05-29T23:19:38.296Z,2.87
2019-05-29T23:22:06.528Z,3.10
2019-05-29T23:24:34.649Z,3.20
2019-05-29T23:27:03.055Z,3.00
2019-05-29T23:29:47.931Z,2.90
2019-05-29T23:32:03.295Z,2.73
2019-05-29T23:34:31.442Z,2.57
2019-05-29T23:36:59.589Z,2.27
2019-05-29T23:39:27.792Z,2.43
2019-05-29T23:41:55.951Z,2.30
2019-05-29T23:44:24.463Z,2.50
2019-05-29T23:46:53.337Z,2.20
2019-05-29T23:49:21.699Z,2.60
2019-05-29T23:51:50.464Z,2.20
2019-05-29T23:54:18.686Z,2.60
2019-05-29T23:56:47.122Z,2.30
2019-05-29T23:59:15.215Z,2.60
